sensor_id;sensor_type;location;lat;lon;timestamp;pressure;altitude;pressure_sealevel;temperature;humidity
37778;BME280;23615;51.506;7.678;2023-02-19T00:01:27;100095.31;;;10.05;100.00
37778;BME280;23615;51.506;7.678;2023-02-19T00:03:55;100091.22;;;10.03;100.00
37778;BME280;23615;51.506;7.678;2023-02-19T00:06:23;100087.09;;;10.07;100.00
37778;BME280;23615;51.506;7.678;2023-02-19T00:08:49;100095.31;;;10.05;100.00
37778;BME280;23615;51.506;7.678;2023-02-19T00:11:22;100107.47;;;9.95;100.00
37778;BME280;23615;51.506;7.678;2023-02-19T00:13:49;100098.25;;;9.97;100.00
37778;BME280;23615;51.506;7.678;2023-02-19T00:16:19;100108.91;;;9.97;100.00
37778;BME280;23615;51.506;7.678;2023-02-19T00:18:45;100120.66;;;9.90;100.00
37778;BME280;23615;51.506;7.678;2023-02-19T00:21:11;100103.44;;;9.92;100.00
37778;BME280;23615;51.506;7.678;2023-02-19T00:23:37;100109.13;;;9.96;100.00
37778;BME280;23615;51.506;7.678;2023-02-19T00:26:07;100114.44;;;9.96;100.00
37778;BME280;23615;51.506;7.678;2023-02-19T00:28:33;100118.00;;;9.90;100.00
37778;BME280;23615;51.506;7.678;2023-02-19T00:31:16;100120.88;;;9.88;100.00
37778;BME280;23615;51.506;7.678;2023-02-19T00:33:42;100104.13;;;9.81;100.00
37778;BME280;23615;51.506;7.678;2023-02-19T00:36:08;100118.63;;;9.85;100.00
37778;BME280;23615;51.506;7.678;2023-02-19T00:38:38;100108.56;;;9.87;100.00
37778;BME280;23615;51.506;7.678;2023-02-19T00:41:04;100114.28;;;9.91;100.00
37778;BME280;23615;51.506;7.678;2023-02-19T00:43:47;100102.22;;;9.88;100.00
37778;BME280;23615;51.506;7.678;2023-02-19T00:46:13;100103.44;;;9.92;100.00
37778;BME280;23615;51.506;7.678;2023-02-19T00:48:39;100095.09;;;9.82;100.00
37778;BME280;23615;51.506;7.678;2023-02-19T00:51:04;100087.69;;;9.84;100.00
37778;BME280;23615;51.506;7.678;2023-02-19T00:53:29;100091.16;;;9.85;100.00
37778;BME280;23615;51.506;7.678;2023-02-19T00:55:55;100085.56;;;9.93;100.00
37778;BME280;23615;51.506;7.678;2023-02-19T00:58:20;100083.13;;;9.91;100.00
37778;BME280;23615;51.506;7.678;2023-02-19T01:00:45;100083.13;;;9.91;100.00
37778;BME280;23615;51.506;7.678;2023-02-19T01:03:12;100090.94;;;9.86;100.00
37778;BME280;23615;51.506;7.678;2023-02-19T01:05:37;100098.53;;;9.89;100.00
37778;BME280;23615;51.506;7.678;2023-02-19T01:08:02;100089.72;;;9.89;100.00
37778;BME280;23615;51.506;7.678;2023-02-19T01:10:28;100080.28;;;9.86;100.00
37778;BME280;23615;51.506;7.678;2023-02-19T01:12:53;100086.06;;;9.83;100.00
37778;BME280;23615;51.506;7.678;2023-02-19T01:15:18;100085.47;;;9.81;100.00
37778;BME280;23615;51.506;7.678;2023-02-19T01:17:44;100082.94;;;9.86;100.00
37778;BME280;23615;51.506;7.678;2023-02-19T01:20:09;100073.94;;;9.87;100.00
37778;BME280;23615;51.506;7.678;2023-02-19T01:22:34;100077.81;;;9.91;100.00
37778;BME280;23615;51.506;7.678;2023-02-19T01:24:59;100067.56;;;9.88;100.00
37778;BME280;23615;51.506;7.678;2023-02-19T01:27:25;100090.88;;;9.93;100.00
37778;BME280;23615;51.506;7.678;2023-02-19T01:29:50;100082.34;;;9.84;100.00
37778;BME280;23615;51.506;7.678;2023-02-19T01:32:15;100074.97;;;9.86;100.00
37778;BME280;23615;51.506;7.678;2023-02-19T01:34:41;100076.19;;;9.84;100.00
37778;BME280;23615;51.506;7.678;2023-02-19T01:37:06;100067.34;;;9.90;100.00
37778;BME280;23615;51.506;7.678;2023-02-19T01:39:36;100084.16;;;9.90;100.00
37778;BME280;23615;51.506;7.678;2023-02-19T01:42:03;100074.59;;;9.83;100.00
37778;BME280;23615;51.506;7.678;2023-02-19T01:46:54;100075.56;;;9.88;100.00
37778;BME280;23615;51.506;7.678;2023-02-19T01:49:32;100070.09;;;9.83;100.00
37778;BME280;23615;51.506;7.678;2023-02-19T01:52:01;100070.28;;;9.82;100.00
37778;BME280;23615;51.506;7.678;2023-02-19T01:54:32;100062.78;;;9.72;100.00
37778;BME280;23615;51.506;7.678;2023-02-19T01:57:00;100052.69;;;9.81;100.00
37778;BME280;23615;51.506;7.678;2023-02-19T01:59:28;100056.03;;;9.94;100.00
37778;BME280;23615;51.506;7.678;2023-02-19T02:01:55;100051.03;;;9.80;100.00
37778;BME280;23615;51.506;7.678;2023-02-19T02:04:20;100049.13;;;9.87;100.00
37778;BME280;23615;51.506;7.678;2023-02-19T02:06:50;100048.31;;;9.86;100.00
37778;BME280;23615;51.506;7.678;2023-02-19T02:09:18;100051.25;;;9.78;100.00
37778;BME280;23615;51.506;7.678;2023-02-19T02:12:02;100051.69;;;9.75;100.00
37778;BME280;23615;51.506;7.678;2023-02-19T02:14:30;100047.97;;;9.76;100.00
37778;BME280;23615;51.506;7.678;2023-02-19T02:17:30;100054.81;;;9.65;100.00
37778;BME280;23615;51.506;7.678;2023-02-19T02:24:03;100058.69;;;9.69;100.00
37778;BME280;23615;51.506;7.678;2023-02-19T02:29:21;100048.44;;;9.73;100.00
37778;BME280;23615;51.506;7.678;2023-02-19T02:31:48;100060.75;;;9.67;100.00
37778;BME280;23615;51.506;7.678;2023-02-19T02:34:24;100052.41;;;9.64;100.00
37778;BME280;23615;51.506;7.678;2023-02-19T02:36:53;100068.53;;;9.69;100.00
37778;BME280;23615;51.506;7.678;2023-02-19T02:39:23;100062.81;;;9.65;100.00
37778;BME280;23615;51.506;7.678;2023-02-19T02:41:54;100073.25;;;9.67;100.00
37778;BME280;23615;51.506;7.678;2023-02-19T02:44:40;100069.00;;;9.59;100.00
37778;BME280;23615;51.506;7.678;2023-02-19T02:47:06;100069.84;;;9.60;100.00
37778;BME280;23615;51.506;7.678;2023-02-19T02:49:53;100077.41;;;9.63;100.00
37778;BME280;23615;51.506;7.678;2023-02-19T02:52:30;100072.63;;;9.71;100.00
37778;BME280;23615;51.506;7.678;2023-02-19T02:55:15;100067.72;;;9.68;100.00
37778;BME280;23615;51.506;7.678;2023-02-19T02:57:40;100082.53;;;9.64;100.00
37778;BME280;23615;51.506;7.678;2023-02-19T03:00:06;100087.06;;;9.57;100.00
37778;BME280;23615;51.506;7.678;2023-02-19T03:02:32;100093.53;;;9.68;100.00
37778;BME280;23615;51.506;7.678;2023-02-19T03:05:06;100083.91;;;9.67;100.00
37778;BME280;23615;51.506;7.678;2023-02-19T03:07:57;100080.06;;;9.63;100.00
37778;BME280;23615;51.506;7.678;2023-02-19T03:10:32;100077.41;;;9.63;100.00
37778;BME280;23615;51.506;7.678;2023-02-19T03:13:02;100088.47;;;9.60;100.00
37778;BME280;23615;51.506;7.678;2023-02-19T03:15:51;100087.03;;;9.64;100.00
37778;BME280;23615;51.506;7.678;2023-02-19T03:18:47;100081.16;;;9.55;100.00
37778;BME280;23615;51.506;7.678;2023-02-19T03:21:34;100083.00;;;9.55;100.00
37778;BME280;23615;51.506;7.678;2023-02-19T03:24:02;100084.19;;;9.59;100.00
37778;BME280;23615;51.506;7.678;2023-02-19T03:26:47;100089.09;;;9.62;100.00
37778;BME280;23615;51.506;7.678;2023-02-19T03:29:20;100077.66;;;9.55;100.00
37778;BME280;23615;51.506;7.678;2023-02-19T03:31:50;100094.69;;;9.47;100.00
37778;BME280;23615;51.506;7.678;2023-02-19T03:34:22;100093.50;;;9.43;100.00
37778;BME280;23615;51.506;7.678;2023-02-19T03:37:01;100102.88;;;9.52;100.00
37778;BME280;23615;51.506;7.678;2023-02-19T03:39:31;100102.88;;;9.52;100.00
37778;BME280;23615;51.506;7.678;2023-02-19T03:42:19;100108.81;;;9.54;100.00
37778;BME280;23615;51.506;7.678;2023-02-19T03:45:00;100119.66;;;9.53;100.00
37778;BME280;23615;51.506;7.678;2023-02-19T03:47:29;100102.06;;;9.52;100.00
37778;BME280;23615;51.506;7.678;2023-02-19T03:56:08;100112.09;;;9.50;100.00
37778;BME280;23615;51.506;7.678;2023-02-19T03:58:59;100128.09;;;9.50;100.00
37778;BME280;23615;51.506;7.678;2023-02-19T04:01:30;100129.31;;;9.47;100.00
37778;BME280;23615;51.506;7.678;2023-02-19T04:04:09;100130.94;;;9.48;100.00
37778;BME280;23615;51.506;7.678;2023-02-19T04:06:38;100134.88;;;9.46;100.00
37778;BME280;23615;51.506;7.678;2023-02-19T04:09:08;100146.09;;;9.48;100.00
37778;BME280;23615;51.506;7.678;2023-02-19T04:11:36;100139.94;;;9.54;100.00
37778;BME280;23615;51.506;7.678;2023-02-19T04:14:09;100158.25;;;9.44;100.00
37778;BME280;23615;51.506;7.678;2023-02-19T04:16:38;100163.97;;;9.41;100.00
37778;BME280;23615;51.506;7.678;2023-02-19T04:19:09;100154.75;;;9.43;100.00
37778;BME280;23615;51.506;7.678;2023-02-19T04:21:36;100159.09;;;9.37;100.00
37778;BME280;23615;51.506;7.678;2023-02-19T04:24:05;100166.88;;;9.32;100.00
37778;BME280;23615;51.506;7.678;2023-02-19T04:26:33;100171.56;;;9.44;100.00
37778;BME280;23615;51.506;7.678;2023-02-19T04:28:59;100178.50;;;9.45;100.00
37778;BME280;23615;51.506;7.678;2023-02-19T04:31:26;100166.63;;;9.41;100.00
37778;BME280;23615;51.506;7.678;2023-02-19T04:33:54;100164.84;;;9.34;100.00
37778;BME280;23615;51.506;7.678;2023-02-19T04:36:19;100173.81;;;9.40;100.00
37778;BME280;23615;51.506;7.678;2023-02-19T04:38:44;100182.00;;;9.38;100.00
37778;BME280;23615;51.506;7.678;2023-02-19T04:41:09;100188.38;;;9.37;100.00
37778;BME280;23615;51.506;7.678;2023-02-19T04:43:35;100184.66;;;9.38;100.00
37778;BME280;23615;51.506;7.678;2023-02-19T04:46:00;100196.59;;;9.29;100.00
37778;BME280;23615;51.506;7.678;2023-02-19T04:48:26;100194.53;;;9.31;100.00
37778;BME280;23615;51.506;7.678;2023-02-19T04:50:51;100193.50;;;9.32;100.00
37778;BME280;23615;51.506;7.678;2023-02-19T04:53:17;100207.84;;;9.31;100.00
37778;BME280;23615;51.506;7.678;2023-02-19T04:55:42;100219.56;;;9.24;100.00
37778;BME280;23615;51.506;7.678;2023-02-19T04:58:07;100211.75;;;9.29;100.00
37778;BME280;23615;51.506;7.678;2023-02-19T05:00:32;100210.75;;;9.23;100.00
37778;BME280;23615;51.506;7.678;2023-02-19T05:02:58;100211.19;;;9.14;100.00
37778;BME280;23615;51.506;7.678;2023-02-19T05:05:24;100215.06;;;9.18;100.00
37778;BME280;23615;51.506;7.678;2023-02-19T05:07:49;100210.53;;;9.25;100.00
37778;BME280;23615;51.506;7.678;2023-02-19T05:10:14;100214.19;;;9.30;100.00
37778;BME280;23615;51.506;7.678;2023-02-19T05:12:40;100217.47;;;9.32;100.00
37778;BME280;23615;51.506;7.678;2023-02-19T05:15:05;100215.44;;;9.34;100.00
37778;BME280;23615;51.506;7.678;2023-02-19T05:17:34;100221.78;;;9.33;100.00
37778;BME280;23615;51.506;7.678;2023-02-19T05:19:59;100231.00;;;9.31;100.00
37778;BME280;23615;51.506;7.678;2023-02-19T05:22:24;100232.44;;;9.27;100.00
37778;BME280;23615;51.506;7.678;2023-02-19T05:24:50;100245.75;;;9.20;100.00
37778;BME280;23615;51.506;7.678;2023-02-19T05:27:15;100225.50;;;9.26;100.00
37778;BME280;23615;51.506;7.678;2023-02-19T05:29:40;100235.72;;;9.22;100.00
37778;BME280;23615;51.506;7.678;2023-02-19T05:32:05;100246.78;;;9.26;100.00
37778;BME280;23615;51.506;7.678;2023-02-19T05:34:31;100257.25;;;9.14;100.00
37778;BME280;23615;51.506;7.678;2023-02-19T05:36:56;100259.50;;;9.17;100.00
37778;BME280;23615;51.506;7.678;2023-02-19T05:39:21;100263.38;;;9.21;100.00
37778;BME280;23615;51.506;7.678;2023-02-19T05:41:47;100265.84;;;9.16;100.00
37778;BME280;23615;51.506;7.678;2023-02-19T05:44:12;100271.34;;;9.21;100.00
37778;BME280;23615;51.506;7.678;2023-02-19T05:46:37;100275.69;;;9.09;100.00
37778;BME280;23615;51.506;7.678;2023-02-19T05:49:03;100268.94;;;9.13;100.00
37778;BME280;23615;51.506;7.678;2023-02-19T05:51:28;100281.22;;;9.14;100.00
37778;BME280;23615;51.506;7.678;2023-02-19T05:53:55;100271.78;;;9.12;100.00
37778;BME280;23615;51.506;7.678;2023-02-19T05:56:32;100285.91;;;9.12;100.00
37778;BME280;23615;51.506;7.678;2023-02-19T05:59:00;100289.00;;;9.16;100.00
37778;BME280;23615;51.506;7.678;2023-02-19T06:01:28;100276.47;;;9.23;100.00
37778;BME280;23615;51.506;7.678;2023-02-19T06:03:53;100282.00;;;9.28;100.00
37778;BME280;23615;51.506;7.678;2023-02-19T06:06:19;100277.50;;;9.28;100.00
37778;BME280;23615;51.506;7.678;2023-02-19T06:08:44;100278.94;;;9.24;100.00
37778;BME280;23615;51.506;7.678;2023-02-19T06:11:10;100294.72;;;9.19;100.00
37778;BME280;23615;51.506;7.678;2023-02-19T06:13:35;100290.00;;;9.15;100.00
37778;BME280;23615;51.506;7.678;2023-02-19T06:16:05;100295.13;;;9.16;100.00
37778;BME280;23615;51.506;7.678;2023-02-19T06:18:31;100294.13;;;9.17;100.00
37778;BME280;23615;51.506;7.678;2023-02-19T06:21:05;100293.69;;;9.20;100.00
37778;BME280;23615;51.506;7.678;2023-02-19T06:23:30;100304.16;;;9.15;100.00
37778;BME280;23615;51.506;7.678;2023-02-19T06:26:08;100300.66;;;9.21;100.00
37778;BME280;23615;51.506;7.678;2023-02-19T06:28:35;100307.81;;;9.14;100.00
37778;BME280;23615;51.506;7.678;2023-02-19T06:31:00;100305.59;;;9.18;100.00
37778;BME280;23615;51.506;7.678;2023-02-19T06:33:26;100307.59;;;9.22;100.00
37778;BME280;23615;51.506;7.678;2023-02-19T06:35:52;100312.31;;;9.20;100.00
37778;BME280;23615;51.506;7.678;2023-02-19T06:38:17;100306.19;;;9.13;100.00
37778;BME280;23615;51.506;7.678;2023-02-19T06:40:42;100310.91;;;9.18;100.00
37778;BME280;23615;51.506;7.678;2023-02-19T06:43:07;100328.09;;;9.22;100.00
37778;BME280;23615;51.506;7.678;2023-02-19T06:45:33;100331.78;;;9.14;100.00
37778;BME280;23615;51.506;7.678;2023-02-19T06:47:58;100334.25;;;9.09;100.00
37778;BME280;23615;51.506;7.678;2023-02-19T06:50:24;100327.28;;;8.95;100.00
37778;BME280;23615;51.506;7.678;2023-02-19T06:52:49;100329.34;;;8.99;100.00
37778;BME280;23615;51.506;7.678;2023-02-19T06:55:14;100330.16;;;9.00;100.00
37778;BME280;23615;51.506;7.678;2023-02-19T06:57:39;100337.72;;;8.96;100.00
37778;BME280;23615;51.506;7.678;2023-02-19T07:00:05;100333.03;;;9.05;100.00
37778;BME280;23615;51.506;7.678;2023-02-19T07:02:32;100332.81;;;9.07;100.00
37778;BME280;23615;51.506;7.678;2023-02-19T07:04:57;100339.59;;;9.09;100.00
37778;BME280;23615;51.506;7.678;2023-02-19T07:07:23;100347.97;;;9.06;100.00
37778;BME280;23615;51.506;7.678;2023-02-19T07:09:48;100350.22;;;9.02;100.00
37778;BME280;23615;51.506;7.678;2023-02-19T07:12:13;100351.66;;;8.98;100.00
37778;BME280;23615;51.506;7.678;2023-02-19T07:14:39;100346.53;;;9.04;100.00
37778;BME280;23615;51.506;7.678;2023-02-19T07:17:04;100350.44;;;9.01;100.00
37778;BME280;23615;51.506;7.678;2023-02-19T07:19:29;100366.59;;;8.93;100.00
37778;BME280;23615;51.506;7.678;2023-02-19T07:21:54;100379.50;;;8.96;100.00
37778;BME280;23615;51.506;7.678;2023-02-19T07:24:20;100386.88;;;9.00;100.00
37778;BME280;23615;51.506;7.678;2023-02-19T07:26:46;100387.47;;;9.02;100.00
37778;BME280;23615;51.506;7.678;2023-02-19T07:29:11;100404.88;;;9.05;100.00
37778;BME280;23615;51.506;7.678;2023-02-19T07:31:37;100394.44;;;8.97;100.00
37778;BME280;23615;51.506;7.678;2023-02-19T07:34:02;100402.22;;;8.98;100.00
37778;BME280;23615;51.506;7.678;2023-02-19T07:36:27;100400.78;;;8.89;100.00
37778;BME280;23615;51.506;7.678;2023-02-19T07:38:54;100403.00;;;8.92;100.00
37778;BME280;23615;51.506;7.678;2023-02-19T07:41:19;100413.25;;;8.89;100.00
37778;BME280;23615;51.506;7.678;2023-02-19T07:43:45;100422.06;;;8.89;100.00
37778;BME280;23615;51.506;7.678;2023-02-19T07:46:12;100428.22;;;8.90;100.00
37778;BME280;23615;51.506;7.678;2023-02-19T07:48:39;100432.72;;;8.89;100.00
37778;BME280;23615;51.506;7.678;2023-02-19T07:51:07;100433.94;;;8.87;100.00
37778;BME280;23615;51.506;7.678;2023-02-19T07:53:33;100435.38;;;8.83;100.00
37778;BME280;23615;51.506;7.678;2023-02-19T07:56:00;100435.75;;;8.80;100.00
37778;BME280;23615;51.506;7.678;2023-02-19T07:58:26;100430.03;;;8.89;100.00
37778;BME280;23615;51.506;7.678;2023-02-19T08:00:51;100439.28;;;9.00;100.00
37778;BME280;23615;51.506;7.678;2023-02-19T08:03:17;100437.44;;;9.00;100.00
37778;BME280;23615;51.506;7.678;2023-02-19T08:05:42;100441.94;;;9.00;100.00
37778;BME280;23615;51.506;7.678;2023-02-19T08:08:10;100449.31;;;9.05;100.00
37778;BME280;23615;51.506;7.678;2023-02-19T08:10:35;100452.34;;;9.01;100.00
37778;BME280;23615;51.506;7.678;2023-02-19T08:13:20;100460.34;;;9.01;100.00
37778;BME280;23615;51.506;7.678;2023-02-19T08:15:52;100460.19;;;9.10;100.00
37778;BME280;23615;51.506;7.678;2023-02-19T08:18:24;100463.03;;;9.08;100.00
37778;BME280;23615;51.506;7.678;2023-02-19T08:20:50;100486.56;;;9.05;100.00
37778;BME280;23615;51.506;7.678;2023-02-19T08:23:16;100480.22;;;8.99;100.00
37778;BME280;23615;51.506;7.678;2023-02-19T08:25:41;100482.44;;;8.95;100.00
37778;BME280;23615;51.506;7.678;2023-02-19T08:28:08;100475.91;;;8.98;100.00
37778;BME280;23615;51.506;7.678;2023-02-19T08:30:35;100478.19;;;9.01;100.00
37778;BME280;23615;51.506;7.678;2023-02-19T08:33:02;100476.75;;;8.98;100.00
37778;BME280;23615;51.506;7.678;2023-02-19T08:35:28;100472.66;;;9.09;100.00
37778;BME280;23615;51.506;7.678;2023-02-19T08:37:57;100465.91;;;9.07;100.00
37778;BME280;23615;51.506;7.678;2023-02-19T08:40:23;100475.72;;;9.06;100.00
37778;BME280;23615;51.506;7.678;2023-02-19T08:42:49;100473.88;;;9.07;100.00
37778;BME280;23615;51.506;7.678;2023-02-19T08:45:14;100489.22;;;9.05;100.00
37778;BME280;23615;51.506;7.678;2023-02-19T08:47:40;100483.06;;;9.04;100.00
37778;BME280;23615;51.506;7.678;2023-02-19T08:50:06;100488.41;;;9.04;100.00
37778;BME280;23615;51.506;7.678;2023-02-19T08:52:32;100484.91;;;9.04;100.00
37778;BME280;23615;51.506;7.678;2023-02-19T08:54:57;100484.72;;;8.98;100.00
37778;BME280;23615;51.506;7.678;2023-02-19T08:57:23;100488.41;;;8.91;100.00
37778;BME280;23615;51.506;7.678;2023-02-19T08:59:49;100498.03;;;8.92;100.00
37778;BME280;23615;51.506;7.678;2023-02-19T09:02:14;100490.63;;;8.87;100.00
37778;BME280;23615;51.506;7.678;2023-02-19T09:04:39;100496.00;;;9.07;100.00
37778;BME280;23615;51.506;7.678;2023-02-19T09:07:05;100497.41;;;9.03;100.00
37778;BME280;23615;51.506;7.678;2023-02-19T09:09:38;100510.31;;;9.06;100.00
37778;BME280;23615;51.506;7.678;2023-02-19T09:12:08;100513.59;;;9.08;100.00
37778;BME280;23615;51.506;7.678;2023-02-19T09:14:34;100521.00;;;9.19;100.00
37778;BME280;23615;51.506;7.678;2023-02-19T09:17:00;100527.78;;;9.28;100.00
37778;BME280;23615;51.506;7.678;2023-02-19T09:19:26;100530.19;;;9.10;100.00
37778;BME280;23615;51.506;7.678;2023-02-19T09:21:52;100527.34;;;9.18;100.00
37778;BME280;23615;51.506;7.678;2023-02-19T09:24:18;100529.19;;;9.24;100.00
37778;BME280;23615;51.506;7.678;2023-02-19T09:26:43;100543.31;;;9.25;100.00
37778;BME280;23615;51.506;7.678;2023-02-19T09:29:09;100543.31;;;9.18;100.00
37778;BME280;23615;51.506;7.678;2023-02-19T09:31:34;100537.38;;;9.16;100.00
37778;BME280;23615;51.506;7.678;2023-02-19T09:33:59;100545.16;;;9.24;100.00
37778;BME280;23615;51.506;7.678;2023-02-19T09:36:25;100540.66;;;9.25;100.00
37778;BME280;23615;51.506;7.678;2023-02-19T09:38:50;100552.13;;;9.25;100.00
37778;BME280;23615;51.506;7.678;2023-02-19T09:41:26;100552.94;;;9.19;100.00
37778;BME280;23615;51.506;7.678;2023-02-19T09:43:53;100557.47;;;9.19;100.00
37778;BME280;23615;51.506;7.678;2023-02-19T09:46:32;100565.63;;;9.17;100.00
37778;BME280;23615;51.506;7.678;2023-02-19T09:49:13;100554.75;;;9.12;100.00
37778;BME280;23615;51.506;7.678;2023-02-19T09:51:42;100566.66;;;9.23;100.00
37778;BME280;23615;51.506;7.678;2023-02-19T09:54:19;100573.25;;;9.27;100.00
37778;BME280;23615;51.506;7.678;2023-02-19T09:56:45;100586.56;;;9.27;100.00
37778;BME280;23615;51.506;7.678;2023-02-19T09:59:19;100591.84;;;9.20;100.00
37778;BME280;23615;51.506;7.678;2023-02-19T10:01:47;100596.13;;;9.15;100.00
37778;BME280;23615;51.506;7.678;2023-02-19T10:04:15;100599.22;;;9.18;100.00
37778;BME280;23615;51.506;7.678;2023-02-19T10:06:41;100605.78;;;9.29;100.00
37778;BME280;23615;51.506;7.678;2023-02-19T10:09:24;100607.03;;;9.33;100.00
37778;BME280;23615;51.506;7.678;2023-02-19T10:11:52;100603.78;;;9.37;100.00
37778;BME280;23615;51.506;7.678;2023-02-19T10:14:22;100611.34;;;9.41;100.00
37778;BME280;23615;51.506;7.678;2023-02-19T10:16:52;100620.16;;;9.34;100.00
37778;BME280;23615;51.506;7.678;2023-02-19T10:19:17;100625.94;;;9.45;100.00
37778;BME280;23615;51.506;7.678;2023-02-19T10:21:43;100627.56;;;9.46;100.00
37778;BME280;23615;51.506;7.678;2023-02-19T10:24:20;100636.97;;;9.42;100.00
37778;BME280;23615;51.506;7.678;2023-02-19T10:26:49;100643.47;;;9.19;100.00
37778;BME280;23615;51.506;7.678;2023-02-19T10:29:14;100653.28;;;9.19;100.00
37778;BME280;23615;51.506;7.678;2023-02-19T10:31:39;100653.50;;;9.24;100.00
37778;BME280;23615;51.506;7.678;2023-02-19T10:34:19;100655.78;;;9.27;100.00
37778;BME280;23615;51.506;7.678;2023-02-19T10:36:47;100661.28;;;9.25;100.00
37778;BME280;23615;51.506;7.678;2023-02-19T10:39:37;100671.72;;;9.20;100.00
37778;BME280;23615;51.506;7.678;2023-02-19T10:42:04;100663.34;;;9.23;100.00
37778;BME280;23615;51.506;7.678;2023-02-19T10:44:35;100668.84;;;9.15;100.00
37778;BME280;23615;51.506;7.678;2023-02-19T10:47:02;100666.47;;;9.40;100.00
37778;BME280;23615;51.506;7.678;2023-02-19T10:49:31;100670.88;;;9.20;100.00
37778;BME280;23615;51.506;7.678;2023-02-19T10:52:13;100671.19;;;9.45;100.00
37778;BME280;23615;51.506;7.678;2023-02-19T10:54:42;100682.06;;;9.50;100.00
37778;BME280;23615;51.506;7.678;2023-02-19T11:02:17;100705.78;;;8.90;100.00
37778;BME280;23615;51.506;7.678;2023-02-19T11:05:08;100718.63;;;8.87;100.00
37778;BME280;23615;51.506;7.678;2023-02-19T11:07:53;100712.84;;;8.77;100.00
37778;BME280;23615;51.506;7.678;2023-02-19T11:10:33;100713.91;;;8.54;100.00
37778;BME280;23615;51.506;7.678;2023-02-19T11:13:02;100710.34;;;8.47;100.00
37778;BME280;23615;51.506;7.678;2023-02-19T11:15:33;100720.88;;;8.55;100.00
37778;BME280;23615;51.506;7.678;2023-02-19T11:20:45;100720.38;;;8.45;100.00
37778;BME280;23615;51.506;7.678;2023-02-19T11:23:15;100727.97;;;8.48;100.00
37778;BME280;23615;51.506;7.678;2023-02-19T11:25:46;100722.13;;;8.59;100.00
37778;BME280;23615;51.506;7.678;2023-02-19T11:30:43;100728.28;;;8.60;100.00
37778;BME280;23615;51.506;7.678;2023-02-19T11:35:42;100733.97;;;8.57;100.00
37778;BME280;23615;51.506;7.678;2023-02-19T11:38:09;100719.47;;;8.59;100.00
37778;BME280;23615;51.506;7.678;2023-02-19T11:40:46;100722.94;;;8.60;100.00
37778;BME280;23615;51.506;7.678;2023-02-19T11:46:38;100735.44;;;8.59;100.00
37778;BME280;23615;51.506;7.678;2023-02-19T11:49:27;100733.97;;;8.57;100.00
37778;BME280;23615;51.506;7.678;2023-02-19T11:52:13;100731.53;;;8.55;100.00
37778;BME280;23615;51.506;7.678;2023-02-19T11:54:48;100721.13;;;8.60;100.00
37778;BME280;23615;51.506;7.678;2023-02-19T11:57:40;100712.75;;;8.63;100.00
37778;BME280;23615;51.506;7.678;2023-02-19T12:00:16;100711.75;;;8.65;100.00
37778;BME280;23615;51.506;7.678;2023-02-19T12:02:54;100712.13;;;8.61;100.00
37778;BME280;23615;51.506;7.678;2023-02-19T12:08:22;100718.06;;;8.63;100.00
37778;BME280;23615;51.506;7.678;2023-02-19T12:16:40;100726.66;;;8.66;100.00
37778;BME280;23615;51.506;7.678;2023-02-19T12:19:32;100725.03;;;8.65;100.00
37778;BME280;23615;51.506;7.678;2023-02-19T12:22:18;100727.09;;;8.69;100.00
37778;BME280;23615;51.506;7.678;2023-02-19T12:25:16;100725.03;;;8.65;100.00
37778;BME280;23615;51.506;7.678;2023-02-19T12:28:09;100723.31;;;8.57;100.00
37778;BME280;23615;51.506;7.678;2023-02-19T12:33:53;100732.19;;;8.64;100.00
37778;BME280;23615;51.506;7.678;2023-02-19T12:36:33;100732.81;;;8.66;100.00
37778;BME280;23615;51.506;7.678;2023-02-19T12:41:58;100737.31;;;8.66;100.00
37778;BME280;23615;51.506;7.678;2023-02-19T12:47:01;100742.19;;;8.62;100.00
37778;BME280;23615;51.506;7.678;2023-02-19T12:49:41;100735.56;;;8.51;100.00
37778;BME280;23615;51.506;7.678;2023-02-19T12:52:13;100745.38;;;8.51;100.00
37778;BME280;23615;51.506;7.678;2023-02-19T12:54:43;100751.25;;;8.68;100.00
37778;BME280;23615;51.506;7.678;2023-02-19T12:57:12;100759.41;;;8.66;100.00
37778;BME280;23615;51.506;7.678;2023-02-19T12:59:58;100746.94;;;8.67;100.00
37778;BME280;23615;51.506;7.678;2023-02-19T13:02:42;100770.31;;;8.71;100.00
37778;BME280;23615;51.506;7.678;2023-02-19T13:05:23;100764.13;;;8.64;100.00
37778;BME280;23615;51.506;7.678;2023-02-19T13:08:02;100764.31;;;8.62;100.00
37778;BME280;23615;51.506;7.678;2023-02-19T13:10:32;100777.75;;;8.54;100.00
37778;BME280;23615;51.506;7.678;2023-02-19T13:13:04;100768.63;;;8.42;100.00
37778;BME280;23615;51.506;7.678;2023-02-19T13:15:35;100766.16;;;8.41;100.00
37778;BME280;23615;51.506;7.678;2023-02-19T13:18:04;100760.78;;;8.34;100.00
37778;BME280;23615;51.506;7.678;2023-02-19T13:20:38;100755.53;;;8.41;100.00
37778;BME280;23615;51.506;7.678;2023-02-19T13:26:12;100765.47;;;8.32;100.00
37778;BME280;23615;51.506;7.678;2023-02-19T13:34:59;100774.41;;;8.46;100.00
37778;BME280;23615;51.506;7.678;2023-02-19T13:37:32;100774.19;;;8.47;100.00
37778;BME280;23615;51.506;7.678;2023-02-19T13:40:05;100772.78;;;8.51;100.00
37778;BME280;23615;51.506;7.678;2023-02-19T13:42:35;100774.19;;;8.47;100.00
37778;BME280;23615;51.506;7.678;2023-02-19T13:45:02;100778.63;;;8.61;100.00
37778;BME280;23615;51.506;7.678;2023-02-19T13:50:30;100790.41;;;8.31;100.00
37778;BME280;23615;51.506;7.678;2023-02-19T13:52:57;100790.56;;;8.30;100.00
37778;BME280;23615;51.506;7.678;2023-02-19T14:01:01;100811.00;;;8.29;100.00
37778;BME280;23615;51.506;7.678;2023-02-19T14:03:29;100815.06;;;8.25;100.00
37778;BME280;23615;51.506;7.678;2023-02-19T14:06:00;100812.84;;;8.28;100.00
37778;BME280;23615;51.506;7.678;2023-02-19T14:08:45;100816.25;;;8.37;100.00
37778;BME280;23615;51.506;7.678;2023-02-19T14:11:11;100812.13;;;8.20;100.00